sensor_id;sensor_type;location;lat;lon;timestamp;pressure;altitude;pressure_sealevel;temperature;humidity
38267;BME280;24063;51.794;19.578;2022-10-20T00:00:34;99604.87;;;3.53;100.00
38267;BME280;24063;51.794;19.578;2022-10-20T00:01:56;99606.36;;;3.53;100.00
38267;BME280;24063;51.794;19.578;2022-10-20T00:02:58;99608.09;;;3.52;100.00
38267;BME280;24063;51.794;19.578;2022-10-20T00:04:00;99607.22;;;3.50;100.00
38267;BME280;24063;51.794;19.578;2022-10-20T00:05:02;99608.36;;;3.50;100.00
38267;BME280;24063;51.794;19.578;2022-10-20T00:06:15;99609.94;;;3.50;100.00
38267;BME280;24063;51.794;19.578;2022-10-20T00:07:17;99607.88;;;3.51;100.00
38267;BME280;24063;51.794;19.578;2022-10-20T00:08:19;99611.30;;;3.52;100.00
38267;BME280;24063;51.794;19.578;2022-10-20T00:09:21;99610.11;;;3.51;100.00
38267;BME280;24063;51.794;19.578;2022-10-20T00:10:23;99615.83;;;3.52;100.00
38267;BME280;24063;51.794;19.578;2022-10-20T00:11:26;99615.36;;;3.53;100.00
38267;BME280;24063;51.794;19.578;2022-10-20T00:12:28;99618.23;;;3.53;100.00
38267;BME280;24063;51.794;19.578;2022-10-20T00:13:30;99615.81;;;3.53;100.00
38267;BME280;24063;51.794;19.578;2022-10-20T00:14:32;99613.15;;;3.51;100.00
38267;BME280;24063;51.794;19.578;2022-10-20T00:15:34;99612.78;;;3.51;100.00
38267;BME280;24063;51.794;19.578;2022-10-20T00:16:37;99614.58;;;3.51;100.00
38267;BME280;24063;51.794;19.578;2022-10-20T00:17:39;99612.89;;;3.50;100.00
38267;BME280;24063;51.794;19.578;2022-10-20T00:18:42;99614.54;;;3.50;100.00
38267;BME280;24063;51.794;19.578;2022-10-20T00:19:46;99614.45;;;3.49;100.00
38267;BME280;24063;51.794;19.578;2022-10-20T00:20:49;99617.29;;;3.49;100.00
38267;BME280;24063;51.794;19.578;2022-10-20T00:21:51;99620.41;;;3.49;100.00
38267;BME280;24063;51.794;19.578;2022-10-20T00:22:53;99625.73;;;3.49;100.00
38267;BME280;24063;51.794;19.578;2022-10-20T00:23:58;99625.48;;;3.48;100.00
38267;BME280;24063;51.794;19.578;2022-10-20T00:25:00;99625.40;;;3.48;100.00
38267;BME280;24063;51.794;19.578;2022-10-20T00:26:05;99625.23;;;3.48;100.00
38267;BME280;24063;51.794;19.578;2022-10-20T00:27:07;99626.34;;;3.47;100.00
38267;BME280;24063;51.794;19.578;2022-10-20T00:28:10;99622.25;;;3.46;100.00
38267;BME280;24063;51.794;19.578;2022-10-20T00:29:12;99622.02;;;3.45;100.00
38267;BME280;24063;51.794;19.578;2022-10-20T00:30:14;99622.39;;;3.45;100.00
38267;BME280;24063;51.794;19.578;2022-10-20T00:31:18;99627.70;;;3.44;100.00
38267;BME280;24063;51.794;19.578;2022-10-20T00:32:20;99624.12;;;3.43;100.00
38267;BME280;24063;51.794;19.578;2022-10-20T00:33:23;99622.42;;;3.42;100.00
38267;BME280;24063;51.794;19.578;2022-10-20T00:34:24;99622.22;;;3.42;100.00
38267;BME280;24063;51.794;19.578;2022-10-20T00:35:26;99621.64;;;3.42;100.00
38267;BME280;24063;51.794;19.578;2022-10-20T00:36:28;99621.85;;;3.42;100.00
38267;BME280;24063;51.794;19.578;2022-10-20T00:37:29;99623.27;;;3.42;100.00
38267;BME280;24063;51.794;19.578;2022-10-20T00:38:32;99620.70;;;3.41;100.00
38267;BME280;24063;51.794;19.578;2022-10-20T00:39:35;99622.38;;;3.42;100.00
38267;BME280;24063;51.794;19.578;2022-10-20T00:40:36;99618.23;;;3.42;100.00
38267;BME280;24063;51.794;19.578;2022-10-20T00:41:39;99618.03;;;3.43;100.00
38267;BME280;24063;51.794;19.578;2022-10-20T00:42:44;99619.84;;;3.43;100.00
38267;BME280;24063;51.794;19.578;2022-10-20T00:43:55;99617.40;;;3.42;100.00
38267;BME280;24063;51.794;19.578;2022-10-20T00:44:59;99621.23;;;3.41;100.00
38267;BME280;24063;51.794;19.578;2022-10-20T00:46:01;99620.20;;;3.41;100.00
38267;BME280;24063;51.794;19.578;2022-10-20T00:47:03;99621.88;;;3.40;100.00
38267;BME280;24063;51.794;19.578;2022-10-20T00:48:13;99623.16;;;3.40;100.00
38267;BME280;24063;51.794;19.578;2022-10-20T00:49:22;99623.41;;;3.38;100.00
38267;BME280;24063;51.794;19.578;2022-10-20T00:50:30;99623.21;;;3.38;100.00
38267;BME280;24063;51.794;19.578;2022-10-20T00:51:34;99624.15;;;3.38;100.00
38267;BME280;24063;51.794;19.578;2022-10-20T00:52:36;99623.12;;;3.38;100.00
38267;BME280;24063;51.794;19.578;2022-10-20T00:53:39;99620.54;;;3.38;100.00
38267;BME280;24063;51.794;19.578;2022-10-20T00:54:40;99619.80;;;3.38;100.00
38267;BME280;24063;51.794;19.578;2022-10-20T00:55:46;99620.28;;;3.39;100.00
38267;BME280;24063;51.794;19.578;2022-10-20T00:56:50;99619.96;;;3.39;100.00
38267;BME280;24063;51.794;19.578;2022-10-20T00:57:54;99618.84;;;3.39;100.00
38267;BME280;24063;51.794;19.578;2022-10-20T00:58:59;99619.16;;;3.39;100.00
38267;BME280;24063;51.794;19.578;2022-10-20T01:00:03;99622.09;;;3.38;100.00
38267;BME280;24063;51.794;19.578;2022-10-20T01:01:06;99617.08;;;3.39;100.00
38267;BME280;24063;51.794;19.578;2022-10-20T01:02:09;99615.44;;;3.38;100.00
38267;BME280;24063;51.794;19.578;2022-10-20T01:03:18;99614.32;;;3.38;100.00
38267;BME280;24063;51.794;19.578;2022-10-20T01:04:21;99611.11;;;3.37;100.00
38267;BME280;24063;51.794;19.578;2022-10-20T01:05:24;99611.63;;;3.37;100.00
38267;BME280;24063;51.794;19.578;2022-10-20T01:06:26;99610.48;;;3.35;100.00
38267;BME280;24063;51.794;19.578;2022-10-20T01:07:28;99606.70;;;3.34;100.00
38267;BME280;24063;51.794;19.578;2022-10-20T01:08:30;99602.88;;;3.33;100.00
38267;BME280;24063;51.794;19.578;2022-10-20T01:09:32;99602.23;;;3.33;100.00
38267;BME280;24063;51.794;19.578;2022-10-20T01:10:58;99601.40;;;3.32;100.00
38267;BME280;24063;51.794;19.578;2022-10-20T01:12:25;99603.61;;;3.32;100.00
38267;BME280;24063;51.794;19.578;2022-10-20T01:13:56;99602.30;;;3.31;100.00
38267;BME280;24063;51.794;19.578;2022-10-20T01:15:31;99606.59;;;3.32;100.00
38267;BME280;24063;51.794;19.578;2022-10-20T01:18:25;99604.36;;;3.31;100.00
38267;BME280;24063;51.794;19.578;2022-10-20T01:20:02;99601.48;;;3.29;100.00
38267;BME280;24063;51.794;19.578;2022-10-20T01:23:09;99596.70;;;3.28;100.00
38267;BME280;24063;51.794;19.578;2022-10-20T01:24:25;99591.08;;;3.26;100.00
38267;BME280;24063;51.794;19.578;2022-10-20T01:27:29;99589.95;;;3.23;100.00
38267;BME280;24063;51.794;19.578;2022-10-20T01:28:56;99590.48;;;3.23;100.00
38267;BME280;24063;51.794;19.578;2022-10-20T01:30:10;99592.29;;;3.23;100.00
38267;BME280;24063;51.794;19.578;2022-10-20T01:33:53;99588.06;;;3.21;100.00
38267;BME280;24063;51.794;19.578;2022-10-20T01:35:22;99588.55;;;3.20;100.00
38267;BME280;24063;51.794;19.578;2022-10-20T01:36:42;99588.05;;;3.17;100.00
38267;BME280;24063;51.794;19.578;2022-10-20T01:40:48;99589.64;;;3.11;100.00
38267;BME280;24063;51.794;19.578;2022-10-20T01:41:57;99589.77;;;3.08;100.00
38267;BME280;24063;51.794;19.578;2022-10-20T01:43:06;99591.57;;;3.07;100.00
38267;BME280;24063;51.794;19.578;2022-10-20T01:44:13;99589.71;;;3.06;100.00
38267;BME280;24063;51.794;19.578;2022-10-20T01:45:19;99590.77;;;3.06;100.00
38267;BME280;24063;51.794;19.578;2022-10-20T01:46:25;99587.46;;;3.06;100.00
38267;BME280;24063;51.794;19.578;2022-10-20T01:47:30;99585.61;;;3.06;100.00
38267;BME280;24063;51.794;19.578;2022-10-20T01:48:34;99585.85;;;3.07;100.00
38267;BME280;24063;51.794;19.578;2022-10-20T01:49:42;99583.88;;;3.07;100.00
38267;BME280;24063;51.794;19.578;2022-10-20T01:50:47;99586.21;;;3.07;100.00
38267;BME280;24063;51.794;19.578;2022-10-20T01:51:50;99587.46;;;3.06;100.00
38267;BME280;24063;51.794;19.578;2022-10-20T01:52:58;99587.16;;;3.03;100.00
38267;BME280;24063;51.794;19.578;2022-10-20T01:54:00;99589.83;;;3.02;100.00
38267;BME280;24063;51.794;19.578;2022-10-20T01:55:13;99588.63;;;3.02;100.00
38267;BME280;24063;51.794;19.578;2022-10-20T01:56:41;99587.48;;;3.01;100.00
38267;BME280;24063;51.794;19.578;2022-10-20T02:00:21;99584.39;;;2.97;100.00
38267;BME280;24063;51.794;19.578;2022-10-20T02:01:36;99586.93;;;2.96;100.00
38267;BME280;24063;51.794;19.578;2022-10-20T02:03:05;99587.30;;;2.96;100.00
38267;BME280;24063;51.794;19.578;2022-10-20T02:04:10;99590.35;;;2.96;100.00
38267;BME280;24063;51.794;19.578;2022-10-20T02:06:57;99588.59;;;2.95;100.00
38267;BME280;24063;51.794;19.578;2022-10-20T02:08:29;99587.11;;;2.97;100.00
38267;BME280;24063;51.794;19.578;2022-10-20T02:09:42;99586.77;;;2.97;100.00
38267;BME280;24063;51.794;19.578;2022-10-20T02:10:49;99589.81;;;2.97;100.00
38267;BME280;24063;51.794;19.578;2022-10-20T02:12:09;99588.17;;;2.96;100.00
38267;BME280;24063;51.794;19.578;2022-10-20T02:13:15;99589.19;;;2.95;100.00
38267;BME280;24063;51.794;19.578;2022-10-20T02:14:20;99585.41;;;2.93;100.00
38267;BME280;24063;51.794;19.578;2022-10-20T02:15:25;99590.11;;;2.92;100.00
38267;BME280;24063;51.794;19.578;2022-10-20T02:16:43;99585.39;;;2.91;100.00
38267;BME280;24063;51.794;19.578;2022-10-20T02:17:51;99588.11;;;2.91;100.00
38267;BME280;24063;51.794;19.578;2022-10-20T02:18:55;99587.74;;;2.91;100.00
38267;BME280;24063;51.794;19.578;2022-10-20T02:19:59;99587.41;;;2.91;100.00
38267;BME280;24063;51.794;19.578;2022-10-20T02:21:03;99586.70;;;2.92;100.00
38267;BME280;24063;51.794;19.578;2022-10-20T02:22:08;99588.16;;;2.93;100.00
38267;BME280;24063;51.794;19.578;2022-10-20T02:23:10;99588.08;;;2.94;100.00
38267;BME280;24063;51.794;19.578;2022-10-20T02:24:14;99584.17;;;2.92;100.00
38267;BME280;24063;51.794;19.578;2022-10-20T02:25:18;99584.13;;;2.93;100.00
38267;BME280;24063;51.794;19.578;2022-10-20T02:26:23;99583.59;;;2.93;100.00
38267;BME280;24063;51.794;19.578;2022-10-20T02:27:33;99583.29;;;2.92;100.00
38267;BME280;24063;51.794;19.578;2022-10-20T02:28:40;99582.93;;;2.91;100.00
38267;BME280;24063;51.794;19.578;2022-10-20T02:29:49;99581.90;;;2.89;100.00
38267;BME280;24063;51.794;19.578;2022-10-20T02:30:51;99581.90;;;2.88;100.00
38267;BME280;24063;51.794;19.578;2022-10-20T02:31:54;99582.11;;;2.88;100.00
38267;BME280;24063;51.794;19.578;2022-10-20T02:32:56;99581.48;;;2.87;100.00
38267;BME280;24063;51.794;19.578;2022-10-20T02:33:58;99582.84;;;2.86;100.00
38267;BME280;24063;51.794;19.578;2022-10-20T02:35:03;99581.06;;;2.85;100.00
38267;BME280;24063;51.794;19.578;2022-10-20T02:36:14;99581.18;;;2.84;100.00
38267;BME280;24063;51.794;19.578;2022-10-20T02:37:17;99582.26;;;2.84;100.00
38267;BME280;24063;51.794;19.578;2022-10-20T02:38:18;99582.05;;;2.84;100.00
38267;BME280;24063;51.794;19.578;2022-10-20T02:39:20;99587.79;;;2.82;100.00
38267;BME280;24063;51.794;19.578;2022-10-20T02:40:22;99583.48;;;2.80;100.00
38267;BME280;24063;51.794;19.578;2022-10-20T02:41:24;99587.71;;;2.80;100.00
38267;BME280;24063;51.794;19.578;2022-10-20T02:42:27;99587.08;;;2.79;100.00
38267;BME280;24063;51.794;19.578;2022-10-20T02:43:28;99585.52;;;2.79;100.00
38267;BME280;24063;51.794;19.578;2022-10-20T02:44:30;99590.17;;;2.79;100.00
38267;BME280;24063;51.794;19.578;2022-10-20T02:45:32;99590.90;;;2.77;100.00
38267;BME280;24063;51.794;19.578;2022-10-20T02:46:33;99587.23;;;2.76;100.00
38267;BME280;24063;51.794;19.578;2022-10-20T02:47:35;99589.45;;;2.74;100.00
38267;BME280;24063;51.794;19.578;2022-10-20T02:48:37;99584.72;;;2.72;100.00
38267;BME280;24063;51.794;19.578;2022-10-20T02:49:39;99584.64;;;2.71;100.00
38267;BME280;24063;51.794;19.578;2022-10-20T02:50:41;99585.49;;;2.71;100.00
38267;BME280;24063;51.794;19.578;2022-10-20T02:51:42;99588.73;;;2.71;100.00
38267;BME280;24063;51.794;19.578;2022-10-20T02:52:44;99588.86;;;2.70;100.00
38267;BME280;24063;51.794;19.578;2022-10-20T02:53:46;99588.73;;;2.69;100.00
38267;BME280;24063;51.794;19.578;2022-10-20T02:54:47;99590.38;;;2.68;100.00
38267;BME280;24063;51.794;19.578;2022-10-20T02:55:49;99589.80;;;2.69;100.00
38267;BME280;24063;51.794;19.578;2022-10-20T02:56:50;99585.38;;;2.67;100.00
38267;BME280;24063;51.794;19.578;2022-10-20T02:57:52;99591.22;;;2.64;100.00
38267;BME280;24063;51.794;19.578;2022-10-20T02:58:54;99590.42;;;2.62;100.00
38267;BME280;24063;51.794;19.578;2022-10-20T02:59:56;99590.27;;;2.62;100.00
38267;BME280;24063;51.794;19.578;2022-10-20T03:00:57;99591.90;;;2.60;100.00
38267;BME280;24063;51.794;19.578;2022-10-20T03:01:59;99593.52;;;2.58;100.00
38267;BME280;24063;51.794;19.578;2022-10-20T03:03:01;99590.02;;;2.57;100.00
38267;BME280;24063;51.794;19.578;2022-10-20T03:04:02;99590.52;;;2.55;100.00
38267;BME280;24063;51.794;19.578;2022-10-20T03:05:05;99596.34;;;2.53;100.00
38267;BME280;24063;51.794;19.578;2022-10-20T03:06:12;99596.70;;;2.52;100.00
38267;BME280;24063;51.794;19.578;2022-10-20T03:07:14;99597.27;;;2.50;100.00
38267;BME280;24063;51.794;19.578;2022-10-20T03:08:16;99598.09;;;2.50;100.00
38267;BME280;24063;51.794;19.578;2022-10-20T03:09:17;99600.27;;;2.51;100.00
38267;BME280;24063;51.794;19.578;2022-10-20T03:10:19;99600.59;;;2.51;100.00
38267;BME280;24063;51.794;19.578;2022-10-20T03:11:21;99596.25;;;2.52;100.00
38267;BME280;24063;51.794;19.578;2022-10-20T03:12:23;99600.73;;;2.53;100.00
38267;BME280;24063;51.794;19.578;2022-10-20T03:13:31;99601.38;;;2.50;100.00
38267;BME280;24063;51.794;19.578;2022-10-20T03:14:32;99604.00;;;2.49;100.00
38267;BME280;24063;51.794;19.578;2022-10-20T03:15:34;99603.70;;;2.49;100.00
38267;BME280;24063;51.794;19.578;2022-10-20T03:16:36;99600.48;;;2.48;100.00
38267;BME280;24063;51.794;19.578;2022-10-20T03:17:38;99596.92;;;2.48;100.00
38267;BME280;24063;51.794;19.578;2022-10-20T03:18:40;99599.48;;;2.47;100.00
38267;BME280;24063;51.794;19.578;2022-10-20T03:19:41;99603.77;;;2.45;100.00
38267;BME280;24063;51.794;19.578;2022-10-20T03:20:43;99603.48;;;2.45;100.00
38267;BME280;24063;51.794;19.578;2022-10-20T03:21:45;99602.98;;;2.43;100.00
38267;BME280;24063;51.794;19.578;2022-10-20T03:22:47;99603.55;;;2.41;100.00
38267;BME280;24063;51.794;19.578;2022-10-20T03:23:48;99604.23;;;2.40;100.00
38267;BME280;24063;51.794;19.578;2022-10-20T03:24:50;99607.05;;;2.39;100.00
38267;BME280;24063;51.794;19.578;2022-10-20T03:25:52;99605.98;;;2.38;100.00
38267;BME280;24063;51.794;19.578;2022-10-20T03:26:54;99606.98;;;2.39;100.00
38267;BME280;24063;51.794;19.578;2022-10-20T03:27:55;99604.31;;;2.38;100.00
38267;BME280;24063;51.794;19.578;2022-10-20T03:28:57;99607.42;;;2.38;100.00
38267;BME280;24063;51.794;19.578;2022-10-20T03:29:58;99606.48;;;2.37;100.00
38267;BME280;24063;51.794;19.578;2022-10-20T03:31:00;99608.92;;;2.36;100.00
38267;BME280;24063;51.794;19.578;2022-10-20T03:32:02;99607.45;;;2.35;100.00
38267;BME280;24063;51.794;19.578;2022-10-20T03:33:04;99606.38;;;2.33;100.00
38267;BME280;24063;51.794;19.578;2022-10-20T03:34:06;99609.95;;;2.33;100.00
38267;BME280;24063;51.794;19.578;2022-10-20T03:35:08;99608.08;;;2.31;100.00
38267;BME280;24063;51.794;19.578;2022-10-20T03:36:10;99608.08;;;2.31;100.00
38267;BME280;24063;51.794;19.578;2022-10-20T03:37:12;99612.11;;;2.32;100.00
38267;BME280;24063;51.794;19.578;2022-10-20T03:38:14;99605.95;;;2.31;100.00
38267;BME280;24063;51.794;19.578;2022-10-20T03:39:15;99610.95;;;2.31;100.00
38267;BME280;24063;51.794;19.578;2022-10-20T03:40:17;99611.08;;;2.32;100.00
38267;BME280;24063;51.794;19.578;2022-10-20T03:41:19;99610.80;;;2.32;100.00
38267;BME280;24063;51.794;19.578;2022-10-20T03:42:20;99609.98;;;2.33;100.00
38267;BME280;24063;51.794;19.578;2022-10-20T03:43:22;99609.83;;;2.34;100.00
38267;BME280;24063;51.794;19.578;2022-10-20T03:44:24;99611.51;;;2.35;100.00
38267;BME280;24063;51.794;19.578;2022-10-20T03:45:25;99611.73;;;2.36;100.00
38267;BME280;24063;51.794;19.578;2022-10-20T03:46:27;99611.73;;;2.37;100.00
38267;BME280;24063;51.794;19.578;2022-10-20T03:47:29;99610.67;;;2.40;100.00
38267;BME280;24063;51.794;19.578;2022-10-20T03:48:30;99612.55;;;2.43;100.00
38267;BME280;24063;51.794;19.578;2022-10-20T03:49:32;99611.16;;;2.46;100.00
38267;BME280;24063;51.794;19.578;2022-10-20T03:50:37;99609.79;;;2.49;100.00
38267;BME280;24063;51.794;19.578;2022-10-20T03:51:38;99607.41;;;2.50;100.00
38267;BME280;24063;51.794;19.578;2022-10-20T03:52:40;99606.98;;;2.53;100.00
38267;BME280;24063;51.794;19.578;2022-10-20T03:53:42;99606.65;;;2.53;100.00
38267;BME280;24063;51.794;19.578;2022-10-20T03:54:44;99605.38;;;2.54;100.00
38267;BME280;24063;51.794;19.578;2022-10-20T03:55:46;99607.84;;;2.54;100.00
38267;BME280;24063;51.794;19.578;2022-10-20T03:56:47;99606.61;;;2.54;100.00
38267;BME280;24063;51.794;19.578;2022-10-20T03:57:49;99606.66;;;2.55;100.00
38267;BME280;24063;51.794;19.578;2022-10-20T03:58:51;99606.00;;;2.57;100.00
38267;BME280;24063;51.794;19.578;2022-10-20T03:59:52;99607.16;;;2.58;100.00
38267;BME280;24063;51.794;19.578;2022-10-20T04:00:54;99603.56;;;2.59;100.00
38267;BME280;24063;51.794;19.578;2022-10-20T04:01:56;99605.58;;;2.62;100.00
38267;BME280;24063;51.794;19.578;2022-10-20T04:02:58;99605.62;;;2.63;100.00
38267;BME280;24063;51.794;19.578;2022-10-20T04:04:00;99604.59;;;2.61;100.00
38267;BME280;24063;51.794;19.578;2022-10-20T04:05:01;99606.84;;;2.58;100.00
38267;BME280;24063;51.794;19.578;2022-10-20T04:06:03;99605.02;;;2.54;100.00
38267;BME280;24063;51.794;19.578;2022-10-20T04:07:05;99605.52;;;2.50;100.00
38267;BME280;24063;51.794;19.578;2022-10-20T04:08:07;99607.56;;;2.46;100.00
38267;BME280;24063;51.794;19.578;2022-10-20T04:09:08;99606.67;;;2.43;100.00
38267;BME280;24063;51.794;19.578;2022-10-20T04:10:12;99608.67;;;2.40;100.00
38267;BME280;24063;51.794;19.578;2022-10-20T04:11:13;99607.80;;;2.39;100.00
38267;BME280;24063;51.794;19.578;2022-10-20T04:12:15;99610.66;;;2.37;100.00
38267;BME280;24063;51.794;19.578;2022-10-20T04:13:17;99612.25;;;2.36;100.00
38267;BME280;24063;51.794;19.578;2022-10-20T04:14:18;99606.66;;;2.35;100.00
38267;BME280;24063;51.794;19.578;2022-10-20T04:15:20;99605.97;;;2.34;100.00
38267;BME280;24063;51.794;19.578;2022-10-20T04:16:22;99606.08;;;2.32;100.00
38267;BME280;24063;51.794;19.578;2022-10-20T04:17:24;99604.59;;;2.29;100.00
38267;BME280;24063;51.794;19.578;2022-10-20T04:18:26;99604.86;;;2.27;100.00
38267;BME280;24063;51.794;19.578;2022-10-20T04:19:27;99605.02;;;2.26;100.00
38267;BME280;24063;51.794;19.578;2022-10-20T04:20:29;99606.13;;;2.24;100.00
38267;BME280;24063;51.794;19.578;2022-10-20T04:21:31;99605.77;;;2.22;100.00
38267;BME280;24063;51.794;19.578;2022-10-20T04:22:32;99605.92;;;2.19;100.00
38267;BME280;24063;51.794;19.578;2022-10-20T04:23:35;99604.60;;;2.17;100.00
38267;BME280;24063;51.794;19.578;2022-10-20T04:24:37;99603.98;;;2.16;100.00
38267;BME280;24063;51.794;19.578;2022-10-20T04:25:40;99604.27;;;2.17;100.00
38267;BME280;24063;51.794;19.578;2022-10-20T04:26:47;99606.65;;;2.17;100.00
38267;BME280;24063;51.794;19.578;2022-10-20T04:27:54;99604.52;;;2.16;100.00
38267;BME280;24063;51.794;19.578;2022-10-20T04:28:55;99605.91;;;2.16;100.00
38267;BME280;24063;51.794;19.578;2022-10-20T04:29:57;99604.09;;;2.15;100.00
38267;BME280;24063;51.794;19.578;2022-10-20T04:30:59;99600.97;;;2.16;100.00
38267;BME280;24063;51.794;19.578;2022-10-20T04:32:01;99603.35;;;2.16;100.00
38267;BME280;24063;51.794;19.578;2022-10-20T04:33:02;99594.52;;;2.12;100.00
38267;BME280;24063;51.794;19.578;2022-10-20T04:34:04;99597.16;;;2.14;100.00
38267;BME280;24063;51.794;19.578;2022-10-20T04:35:06;99596.16;;;2.12;100.00
38267;BME280;24063;51.794;19.578;2022-10-20T04:36:11;99596.67;;;2.10;100.00
38267;BME280;24063;51.794;19.578;2022-10-20T04:37:13;99596.09;;;2.10;100.00
38267;BME280;24063;51.794;19.578;2022-10-20T04:38:14;99591.58;;;2.08;100.00
38267;BME280;24063;51.794;19.578;2022-10-20T04:39:16;99590.30;;;2.09;100.00
38267;BME280;24063;51.794;19.578;2022-10-20T04:40:18;99591.78;;;2.08;100.00
38267;BME280;24063;51.794;19.578;2022-10-20T04:41:19;99588.83;;;2.09;100.00
38267;BME280;24063;51.794;19.578;2022-10-20T04:42:21;99586.38;;;2.10;100.00
38267;BME280;24063;51.794;19.578;2022-10-20T04:43:23;99583.39;;;2.11;100.00
38267;BME280;24063;51.794;19.578;2022-10-20T04:44:25;99586.06;;;2.13;100.00
38267;BME280;24063;51.794;19.578;2022-10-20T04:45:27;99586.59;;;2.12;100.00
38267;BME280;24063;51.794;19.578;2022-10-20T04:46:29;99585.89;;;2.11;100.00
38267;BME280;24063;51.794;19.578;2022-10-20T04:47:32;99592.05;;;2.12;100.00
38267;BME280;24063;51.794;19.578;2022-10-20T04:48:36;99584.95;;;2.13;100.00
38267;BME280;24063;51.794;19.578;2022-10-20T04:49:39;99586.48;;;2.15;100.00
38267;BME280;24063;51.794;19.578;2022-10-20T04:50:41;99583.40;;;2.14;100.00
38267;BME280;24063;51.794;19.578;2022-10-20T04:51:43;99584.17;;;2.12;100.00
38267;BME280;24063;51.794;19.578;2022-10-20T04:52:44;99580.30;;;2.11;100.00
38267;BME280;24063;51.794;19.578;2022-10-20T04:53:46;99581.92;;;2.09;100.00
38267;BME280;24063;51.794;19.578;2022-10-20T04:54:48;99580.05;;;2.08;100.00
38267;BME280;24063;51.794;19.578;2022-10-20T04:55:54;99576.36;;;2.08;100.00
38267;BME280;24063;51.794;19.578;2022-10-20T04:56:56;99577.30;;;2.07;100.00
38267;BME280;24063;51.794;19.578;2022-10-20T04:57:57;99574.48;;;2.04;100.00
38267;BME280;24063;51.794;19.578;2022-10-20T04:58:59;99573.61;;;2.03;100.00
38267;BME280;24063;51.794;19.578;2022-10-20T05:00:01;99572.45;;;2.01;100.00
38267;BME280;24063;51.794;19.578;2022-10-20T05:01:06;99575.92;;;2.00;100.00
38267;BME280;24063;51.794;19.578;2022-10-20T05:02:08;99572.69;;;2.00;100.00
38267;BME280;24063;51.794;19.578;2022-10-20T05:03:11;99575.98;;;2.01;100.00
38267;BME280;24063;51.794;19.578;2022-10-20T05:04:13;99575.74;;;2.03;100.00
38267;BME280;24063;51.794;19.578;2022-10-20T05:05:21;99572.92;;;2.03;100.00
38267;BME280;24063;51.794;19.578;2022-10-20T05:06:26;99571.83;;;2.00;100.00
38267;BME280;24063;51.794;19.578;2022-10-20T05:07:28;99574.64;;;1.98;100.00
38267;BME280;24063;51.794;19.578;2022-10-20T05:08:31;99573.58;;;1.98;100.00
38267;BME280;24063;51.794;19.578;2022-10-20T05:09:32;99574.53;;;1.99;100.00
38267;BME280;24063;51.794;19.578;2022-10-20T05:10:34;99578.30;;;1.98;100.00
38267;BME280;24063;51.794;19.578;2022-10-20T05:11:37;99579.27;;;1.96;100.00
38267;BME280;24063;51.794;19.578;2022-10-20T05:12:39;99581.98;;;1.92;100.00
38267;BME280;24063;51.794;19.578;2022-10-20T05:13:41;99581.58;;;1.86;100.00
38267;BME280;24063;51.794;19.578;2022-10-20T05:14:43;99578.70;;;1.79;100.00
38267;BME280;24063;51.794;19.578;2022-10-20T05:15:51;99584.25;;;1.75;100.00
38267;BME280;24063;51.794;19.578;2022-10-20T05:16:52;99584.37;;;1.70;100.00
38267;BME280;24063;51.794;19.578;2022-10-20T05:17:54;99585.88;;;1.65;100.00
38267;BME280;24063;51.794;19.578;2022-10-20T05:18:56;99589.16;;;1.63;100.00
38267;BME280;24063;51.794;19.578;2022-10-20T05:19:58;99591.08;;;1.62;100.00
38267;BME280;24063;51.794;19.578;2022-10-20T05:21:12;99589.76;;;1.62;100.00
38267;BME280;24063;51.794;19.578;2022-10-20T05:22:14;99590.65;;;1.65;100.00
38267;BME280;24063;51.794;19.578;2022-10-20T05:23:16;99588.75;;;1.67;100.00
38267;BME280;24063;51.794;19.578;2022-10-20T05:24:17;99591.46;;;1.71;100.00
38267;BME280;24063;51.794;19.578;2022-10-20T05:25:23;99592.23;;;1.75;100.00
38267;BME280;24063;51.794;19.578;2022-10-20T05:26:37;99590.46;;;1.79;100.00
38267;BME280;24063;51.794;19.578;2022-10-20T05:27:39;99589.02;;;1.82;100.00
38267;BME280;24063;51.794;19.578;2022-10-20T05:28:46;99591.81;;;1.85;100.00
38267;BME280;24063;51.794;19.578;2022-10-20T05:29:48;99595.13;;;1.87;100.00
38267;BME280;24063;51.794;19.578;2022-10-20T05:30:50;99597.45;;;1.86;100.00
38267;BME280;24063;51.794;19.578;2022-10-20T05:31:51;99593.90;;;1.83;100.00
38267;BME280;24063;51.794;19.578;2022-10-20T05:32:53;99599.32;;;1.79;100.00
38267;BME280;24063;51.794;19.578;2022-10-20T05:33:56;99597.52;;;1.74;100.00
38267;BME280;24063;51.794;19.578;2022-10-20T05:34:58;99601.88;;;1.70;100.00
38267;BME280;24063;51.794;19.578;2022-10-20T05:35:59;99600.88;;;1.67;100.00
38267;BME280;24063;51.794;19.578;2022-10-20T05:37:06;99601.13;;;1.64;100.00
38267;BME280;24063;51.794;19.578;2022-10-20T05:38:08;99602.51;;;1.62;100.00
38267;BME280;24063;51.794;19.578;2022-10-20T05:39:10;99603.82;;;1.61;100.00
38267;BME280;24063;51.794;19.578;2022-10-20T05:40:12;99598.27;;;1.60;100.00
38267;BME280;24063;51.794;19.578;2022-10-20T05:41:16;99599.09;;;1.60;100.00
38267;BME280;24063;51.794;19.578;2022-10-20T05:42:18;99601.89;;;1.61;100.00
38267;BME280;24063;51.794;19.578;2022-10-20T05:43:20;99601.40;;;1.62;100.00
38267;BME280;24063;51.794;19.578;2022-10-20T05:44:21;99602.88;;;1.62;100.00
38267;BME280;24063;51.794;19.578;2022-10-20T05:45:23;99602.64;;;1.63;100.00
38267;BME280;24063;51.794;19.578;2022-10-20T05:46:27;99603.27;;;1.64;100.00
38267;BME280;24063;51.794;19.578;2022-10-20T05:47:29;99606.19;;;1.64;100.00
38267;BME280;24063;51.794;19.578;2022-10-20T05:48:32;99607.33;;;1.65;100.00
38267;BME280;24063;51.794;19.578;2022-10-20T05:49:34;99608.20;;;1.67;100.00
38267;BME280;24063;51.794;19.578;2022-10-20T05:50:36;99612.20;;;1.69;100.00
38267;BME280;24063;51.794;19.578;2022-10-20T05:51:38;99610.92;;;1.72;100.00